Time;durP1;ratioP1;P1;durP2;ratioP2;P2;SDS_P1;SDS_P2;PMS_P1;PMS_P2;Temp;Humidity;BMP_temperature;BMP_pressure;BME280_temperature;BME280_humidity;BME280_pressure;Samples;Min_cycle;Max_cycle;Signal;HPM_P1;HPM_P2
2023/12/25 00:01:11;;;;;;;0.95;0.43;;;;;;;10.59;75.96;98996.19;4973155;28;20046;-45
2023/12/25 00:03:38;;;;;;;0.60;0.35;;;;;;;10.59;75.78;98996.19;4979833;28;20078;-53
2023/12/25 00:06:16;;;;;;;1.50;0.88;;;;;;;10.57;75.63;99008.31;4972578;28;20496;-50
2023/12/25 00:08:43;;;;;;;1.75;0.30;;;;;;;10.56;75.12;99017.81;4976412;28;20050;-46
2023/12/25 00:11:10;;;;;;;3.13;0.77;;;;;;;10.50;76.17;99018.78;4975694;28;20054;-48
2023/12/25 00:13:37;;;;;;;1.88;0.73;;;;;;;10.49;75.83;99011.91;4977405;28;20127;-46
2023/12/25 00:16:04;;;;;;;1.58;0.38;;;;;;;10.45;74.97;99010.25;4975317;28;20050;-45
2023/12/25 00:18:30;;;;;;;2.78;0.40;;;;;;;10.46;75.29;99017.13;4975607;28;20048;-48
2023/12/25 00:20:58;;;;;;;0.82;0.55;;;;;;;10.47;74.95;99015.41;4977184;28;20419;-47
2023/12/25 00:23:25;;;;;;;3.05;0.38;;;;;;;10.45;75.11;99015.44;4974660;28;22473;-50
2023/12/25 00:25:52;;;;;;;1.50;0.30;;;;;;;10.47;74.86;99008.47;4975300;28;20042;-49
2023/12/25 00:28:20;;;;;;;3.45;0.60;;;;;;;10.46;75.60;99000.75;4979924;28;20042;-46
2023/12/25 00:30:47;;;;;;;1.08;0.40;;;;;;;10.43;75.83;99011.97;4985807;28;20051;-45
2023/12/25 00:33:13;;;;;;;0.80;0.70;;;;;;;10.40;74.90;99006.84;4986379;28;20404;-48
2023/12/25 00:35:41;;;;;;;1.17;0.52;;;;;;;10.44;75.40;99013.72;4985500;28;20121;-48
2023/12/25 00:38:08;;;;;;;3.80;0.68;;;;;;;10.44;74.71;99002.50;4977281;28;20062;-49
2023/12/25 00:40:37;;;;;;;2.97;0.47;;;;;;;10.42;74.85;98999.94;4991026;28;20031;-46
2023/12/25 00:43:07;;;;;;;2.08;0.32;;;;;;;10.39;75.47;98997.38;4999281;28;20030;-42
2023/12/25 00:45:34;;;;;;;2.40;0.77;;;;;;;10.35;75.82;99006.09;4976591;28;20050;-48
2023/12/25 00:48:00;;;;;;;1.15;0.55;;;;;;;10.39;75.03;99002.56;4981766;28;20046;-51
2023/12/25 00:50:28;;;;;;;1.83;0.40;;;;;;;10.34;75.01;99002.63;4986007;28;20043;-44
2023/12/25 00:52:55;;;;;;;2.65;0.70;;;;;;;10.35;74.70;99006.97;4976077;28;20141;-46
2023/12/25 00:55:21;;;;;;;1.55;0.43;;;;;;;10.34;75.61;99006.97;4977126;28;20121;-47
2023/12/25 00:57:48;;;;;;;0.65;0.47;;;;;;;10.32;74.69;99004.41;4968877;28;20057;-51
2023/12/25 01:00:15;;;;;;;0.43;0.30;;;;;;;10.27;75.00;99022.63;4976024;28;20492;-42
2023/12/25 01:02:43;;;;;;;3.67;0.52;;;;;;;10.32;74.66;99019.09;4976846;28;20065;-49
2023/12/25 01:05:10;;;;;;;1.70;1.60;;;;;;;10.35;75.63;99008.69;4974926;28;20347;-47
2023/12/25 01:07:37;;;;;;;1.63;0.40;;;;;;;10.36;74.53;99007.78;4972290;28;20481;-48
2023/12/25 01:10:03;;;;;;;3.80;0.63;;;;;;;10.31;74.77;98996.69;4976876;28;20061;-44
2023/12/25 01:12:30;;;;;;;4.63;0.70;;;;;;;10.36;74.22;98989.66;4975490;28;20129;-52
2023/12/25 01:14:57;;;;;;;0.75;0.30;;;;;;;10.37;75.52;98997.41;4975460;28;20566;-49
2023/12/25 01:17:24;;;;;;;2.17;0.30;;;;;;;10.33;74.84;99000.09;4979174;28;20088;-52
2023/12/25 01:19:51;;;;;;;2.25;0.50;;;;;;;10.34;74.25;99009.56;4980681;28;20057;-42
2023/12/25 01:22:19;;;;;;;2.75;0.25;;;;;;;10.35;74.85;99004.38;4974339;28;20053;-48
2023/12/25 01:24:47;;;;;;;3.30;1.63;;;;;;;10.32;74.95;99006.16;4972956;28;20549;-44
2023/12/25 01:27:16;;;;;;;0.80;0.40;;;;;;;10.29;75.40;99020.88;4984006;28;20057;-48
2023/12/25 01:29:43;;;;;;;2.15;0.47;;;;;;;10.29;75.15;99023.44;4978946;28;20331;-50
2023/12/25 01:32:11;;;;;;;1.50;1.10;;;;;;;10.31;75.41;99022.56;4979894;28;20042;-48
2023/12/25 01:34:39;;;;;;;2.70;0.32;;;;;;;10.31;75.40;99031.19;4971271;28;20078;-50
2023/12/25 01:37:06;;;;;;;3.80;0.57;;;;;;;10.33;75.62;99036.34;4983367;28;20046;-50
2023/12/25 01:39:34;;;;;;;2.20;0.60;;;;;;;10.38;75.20;99044.88;4976416;28;20070;-48
2023/12/25 01:42:02;;;;;;;3.13;0.40;;;;;;;10.43;75.38;99047.38;4976635;28;20104;-43
2023/12/25 01:44:29;;;;;;;4.35;0.70;;;;;;;10.44;74.97;99039.59;4972786;28;20051;-47
2023/12/25 01:46:57;;;;;;;2.20;0.52;;;;;;;10.43;75.07;99045.63;4981124;28;20054;-48
2023/12/25 01:49:25;;;;;;;4.10;0.93;;;;;;;10.43;75.56;99048.22;4982195;28;20479;-50
2023/12/25 01:51:53;;;;;;;3.97;0.40;;;;;;;10.38;74.58;99044.88;4978438;28;20112;-47
2023/12/25 01:54:21;;;;;;;3.00;0.70;;;;;;;10.38;74.96;99034.50;4974236;28;20047;-47
2023/12/25 01:56:49;;;;;;;1.13;0.32;;;;;;;10.30;76.16;99032.06;4978069;28;20145;-53
2023/12/25 01:59:17;;;;;;;4.35;0.75;;;;;;;10.36;75.36;99031.09;4974333;28;20050;-42
2023/12/25 02:01:45;;;;;;;2.80;0.50;;;;;;;10.34;75.62;99028.53;4973117;28;20097;-48
2023/12/25 02:04:12;;;;;;;1.38;0.60;;;;;;;10.36;76.62;99031.09;4974455;28;20106;-49
2023/12/25 02:06:39;;;;;;;2.53;1.40;;;;;;;10.40;76.09;99027.56;4975198;28;20149;-46
2023/12/25 02:09:07;;;;;;;1.83;0.30;;;;;;;10.42;76.69;99031.00;4982599;28;20043;-51
2023/12/25 02:11:39;;;;;;;1.50;0.30;;;;;;;10.43;76.50;99027.50;4978413;28;20054;-47
2023/12/25 02:14:06;;;;;;;2.15;0.55;;;;;;;10.44;75.79;99034.41;4982845;28;20047;-46
2023/12/25 02:16:35;;;;;;;1.33;0.50;;;;;;;10.44;76.58;99030.97;4981755;28;20789;-46
2023/12/25 02:19:03;;;;;;;2.45;0.50;;;;;;;10.44;76.76;99034.41;4981183;28;20129;-49
2023/12/25 02:21:32;;;;;;;2.50;0.40;;;;;;;10.45;76.13;99046.50;4979189;28;20046;-48
2023/12/25 02:24:03;;;;;;;3.33;0.35;;;;;;;10.48;76.14;99050.75;4985232;28;20053;-51
2023/12/25 02:26:30;;;;;;;1.10;0.70;;;;;;;10.49;75.87;99063.69;4971898;28;20068;-44
2023/12/25 02:28:57;;;;;;;3.28;0.82;;;;;;;10.52;76.41;99065.34;4975234;28;20042;-53
2023/12/25 02:31:27;;;;;;;1.92;0.70;;;;;;;10.54;77.00;99077.38;4981918;28;20054;-50
2023/12/25 02:33:54;;;;;;;0.98;0.50;;;;;;;10.56;76.29;99079.09;4976317;28;20569;-51
2023/12/25 02:36:22;;;;;;;2.03;0.20;;;;;;;10.58;77.46;99077.34;4989437;28;20046;-46
2023/12/25 02:38:49;;;;;;;0.55;0.40;;;;;;;10.62;76.61;99073.81;4976417;28;20061;-50
2023/12/25 02:41:16;;;;;;;1.90;1.27;;;;;;;10.62;76.47;99085.03;4982033;28;20521;-54
2023/12/25 02:43:42;;;;;;;1.80;1.70;;;;;;;10.64;77.69;99098.78;4981093;28;20157;-50
2023/12/25 02:46:09;;;;;;;0.43;0.35;;;;;;;10.62;77.15;99087.63;4975814;28;20073;-50
2023/12/25 02:48:36;;;;;;;3.00;0.50;;;;;;;10.62;77.03;99095.38;4983405;28;20826;-50
2023/12/25 02:51:04;;;;;;;1.27;0.70;;;;;;;10.65;77.16;99104.84;4979070;28;20082;-52
2023/12/25 02:53:31;;;;;;;1.20;0.68;;;;;;;10.59;77.43;99110.09;4977947;28;20057;-44
2023/12/25 02:55:58;;;;;;;1.88;0.43;;;;;;;10.60;76.82;99101.47;4982416;28;20078;-51
2023/12/25 02:58:24;;;;;;;0.45;0.30;;;;;;;10.54;77.49;99108.47;4980828;28;20047;-44
2023/12/25 03:00:51;;;;;;;0.98;0.38;;;;;;;10.56;77.57;99110.16;4979295;28;20052;-46
2023/12/25 03:03:17;;;;;;;1.40;0.40;;;;;;;10.52;78.15;99115.41;4976156;28;20145;-48
2023/12/25 03:05:44;;;;;;;1.60;0.43;;;;;;;10.52;77.80;99123.19;4972676;28;20093;-50
2023/12/25 03:08:11;;;;;;;2.55;0.43;;;;;;;10.48;77.31;99113.75;4982518;28;20054;-46
2023/12/25 03:10:38;;;;;;;1.90;0.20;;;;;;;10.48;77.75;99112.91;4973215;28;20133;-44
2023/12/25 03:13:05;;;;;;;1.65;0.30;;;;;;;10.45;76.84;99119.00;4976478;28;20061;-47
2023/12/25 03:15:32;;;;;;;1.80;0.80;;;;;;;10.42;77.65;99113.81;4972039;28;20101;-47
2023/12/25 03:17:59;;;;;;;0.95;0.52;;;;;;;10.40;77.15;99111.25;4977435;28;20077;-49
2023/12/25 03:20:26;;;;;;;1.10;0.32;;;;;;;10.37;76.98;99106.13;4980010;28;20092;-46
2023/12/25 03:22:54;;;;;;;1.80;0.52;;;;;;;10.36;77.21;99098.38;4983616;28;20051;-46
2023/12/25 03:25:21;;;;;;;1.33;0.50;;;;;;;10.37;77.87;99097.53;4987670;28;20042;-45
2023/12/25 03:27:47;;;;;;;1.42;0.40;;;;;;;10.38;77.35;99096.63;4995193;28;20058;-45
2023/12/25 03:30:14;;;;;;;1.45;0.40;;;;;;;10.36;77.23;99098.38;4979082;28;20046;-46
2023/12/25 03:32:41;;;;;;;4.22;0.47;;;;;;;10.34;77.45;99101.00;4979330;28;20424;-44
2023/12/25 03:35:08;;;;;;;0.60;0.30;;;;;;;10.34;77.49;99102.75;4980996;28;20096;-47
2023/12/25 03:37:35;;;;;;;1.63;0.22;;;;;;;10.32;77.40;99096.72;4981416;28;20060;-51
2023/12/25 03:40:02;;;;;;;1.75;0.28;;;;;;;10.29;76.64;99098.50;4989372;28;20065;-48
2023/12/25 03:42:29;;;;;;;1.50;0.43;;;;;;;10.26;76.65;99093.38;4979941;28;20047;-51
2023/12/25 03:44:56;;;;;;;0.90;0.40;;;;;;;10.20;77.79;99097.81;4986220;28;20054;-48
2023/12/25 03:47:22;;;;;;;0.75;0.30;;;;;;;10.16;77.01;99097.00;4979831;28;20569;-41
2023/12/25 03:49:50;;;;;;;3.42;0.40;;;;;;;10.21;77.00;99095.19;4982278;28;20129;-44
2023/12/25 03:52:17;;;;;;;1.60;0.40;;;;;;;10.19;77.55;99086.59;4988095;28;20104;-47
2023/12/25 03:54:43;;;;;;;0.93;0.43;;;;;;;10.17;77.39;99098.72;4982488;28;20097;-49
2023/12/25 03:57:11;;;;;;;0.70;0.45;;;;;;;10.21;77.28;99090.03;4983009;28;20109;-48
2023/12/25 03:59:39;;;;;;;2.97;2.00;;;;;;;10.18;77.91;99084.91;4978041;28;20508;-49
2023/12/25 04:02:06;;;;;;;3.45;0.40;;;;;;;10.21;77.31;99100.38;4983881;28;20566;-44
2023/12/25 04:04:33;;;;;;;0.75;0.75;;;;;;;10.15;77.15;99100.47;4980759;28;20047;-47
2023/12/25 04:06:59;;;;;;;1.63;0.38;;;;;;;10.22;77.25;99102.06;4985545;28;20050;-50
2023/12/25 04:09:27;;;;;;;0.93;0.40;;;;;;;10.22;76.84;99101.22;4984796;28;20042;-49
2023/12/25 04:11:54;;;;;;;1.90;1.80;;;;;;;10.26;77.78;99093.38;4987153;28;20746;-49
2023/12/25 04:14:21;;;;;;;1.67;0.38;;;;;;;10.27;77.00;99089.06;4988714;28;20613;-55
2023/12/25 04:16:47;;;;;;;2.33;0.63;;;;;;;10.30;77.51;99081.22;4979498;28;20050;-44
2023/12/25 04:19:14;;;;;;;1.67;0.60;;;;;;;10.28;76.79;99075.25;4988682;28;20049;-49
2023/12/25 04:21:42;;;;;;;3.47;0.60;;;;;;;10.27;76.35;99071.78;4981168;28;20515;-52
2023/12/25 04:24:09;;;;;;;0.32;0.22;;;;;;;10.21;77.67;99068.47;4981206;28;20058;-49
2023/12/25 04:26:36;;;;;;;1.20;0.30;;;;;;;10.17;76.62;99067.66;4980196;28;20055;-50
2023/12/25 04:29:02;;;;;;;2.17;0.40;;;;;;;10.20;76.30;99059.00;4987188;28;20145;-51
2023/12/25 04:31:30;;;;;;;1.33;0.47;;;;;;;10.17;77.28;99065.09;4988033;28;20050;-48
2023/12/25 04:33:56;;;;;;;1.65;0.70;;;;;;;10.11;77.27;99075.53;4976617;28;20053;-45
2023/12/25 04:36:25;;;;;;;0.43;0.20;;;;;;;10.01;77.63;99057.56;4988363;28;20101;-44
2023/12/25 04:38:53;;;;;;;1.27;0.30;;;;;;;10.08;76.58;99057.47;4984027;28;20065;-47
2023/12/25 04:41:21;;;;;;;2.28;0.25;;;;;;;10.09;76.64;99053.97;4987057;28;20120;-52
2023/12/25 04:43:50;;;;;;;1.63;0.30;;;;;;;10.06;77.16;99049.72;4983504;28;20061;-43
2023/12/25 04:46:18;;;;;;;2.03;0.52;;;;;;;10.05;77.21;99049.75;4974922;28;20090;-48
2023/12/25 04:48:44;;;;;;;2.95;0.60;;;;;;;10.08;77.39;99052.28;4980342;28;20054;-46
2023/12/25 04:51:12;;;;;;;1.48;0.40;;;;;;;10.08;77.23;99057.47;4984611;28;20088;-48
2023/12/25 04:53:40;;;;;;;2.05;0.55;;;;;;;10.06;76.69;99064.41;4986120;28;20109;-50
2023/12/25 04:56:11;;;;;;;1.75;0.82;;;;;;;10.06;76.67;99048.88;4975934;28;20069;-48
2023/12/25 04:58:38;;;;;;;1.85;0.30;;;;;;;10.07;76.76;99055.75;4963383;28;20594;-44
2023/12/25 05:01:05;;;;;;;2.33;1.65;;;;;;;10.05;77.51;99067.84;4965993;28;20062;-50
2023/12/25 05:03:33;;;;;;;0.30;0.22;;;;;;;10.06;77.62;99072.16;4974100;28;20129;-45
2023/12/25 05:06:00;;;;;;;1.10;0.38;;;;;;;10.04;77.15;99072.19;4974195;28;20105;-51
2023/12/25 05:08:27;;;;;;;1.92;0.40;;;;;;;10.05;76.89;99070.44;4974106;28;20058;-50
2023/12/25 05:10:54;;;;;;;2.10;0.30;;;;;;;10.00;77.36;99084.31;4975898;28;20054;-43
2023/12/25 05:13:22;;;;;;;0.60;0.30;;;;;;;10.03;77.35;99097.19;4977194;28;20046;-47
2023/12/25 05:15:49;;;;;;;2.25;0.50;;;;;;;10.00;77.37;99097.22;4976513;28;20409;-45
2023/12/25 05:18:16;;;;;;;1.92;1.83;;;;;;;10.04;76.91;99108.41;4973787;28;20061;-51
2023/12/25 05:20:43;;;;;;;1.48;0.25;;;;;;;10.03;76.90;99102.38;4970850;28;20593;-48
2023/12/25 05:23:09;;;;;;;1.33;0.50;;;;;;;10.01;77.72;99111.91;4982375;28;20077;-47
2023/12/25 05:25:36;;;;;;;0.70;0.40;;;;;;;10.02;77.41;99105.84;4974071;28;20590;-42
2023/12/25 05:28:03;;;;;;;1.50;0.30;;;;;;;10.01;77.24;99119.66;4975389;28;20058;-49
2023/12/25 05:30:30;;;;;;;1.70;1.35;;;;;;;9.99;77.46;99111.06;4972546;28;20473;-48
2023/12/25 05:32:57;;;;;;;1.45;0.43;;;;;;;9.99;77.07;99113.66;4975910;28;20137;-42
2023/12/25 05:35:24;;;;;;;1.83;0.57;;;;;;;9.97;77.25;99120.56;4974407;28;20050;-48
2023/12/25 05:37:51;;;;;;;1.75;0.35;;;;;;;9.97;77.76;99107.63;4983470;28;20046;-47
2023/12/25 05:40:18;;;;;;;0.47;0.40;;;;;;;9.93;77.55;99111.13;4972725;28;20165;-44
2023/12/25 05:42:46;;;;;;;1.38;0.30;;;;;;;9.95;76.95;99118.88;4978137;28;20046;-44
2023/12/25 05:45:12;;;;;;;0.75;0.20;;;;;;;9.94;77.45;99123.22;4982372;28;20058;-49
2023/12/25 05:47:39;;;;;;;1.55;0.63;;;;;;;9.93;77.72;99111.13;4974750;28;20520;-48
2023/12/25 05:50:08;;;;;;;1.10;0.40;;;;;;;9.93;77.65;99116.31;4973673;28;20154;-50
2023/12/25 05:52:35;;;;;;;3.75;0.52;;;;;;;9.91;77.86;99128.44;4976705;28;20060;-47
2023/12/25 05:55:01;;;;;;;0.75;0.28;;;;;;;9.89;77.75;99119.81;4974319;28;20057;-47
2023/12/25 05:57:28;;;;;;;1.17;0.32;;;;;;;9.87;78.47;99119.84;4978754;28;20058;-43
2023/12/25 05:59:55;;;;;;;2.38;0.88;;;;;;;9.88;77.20;99125.88;4982508;28;20043;-50
2023/12/25 06:02:22;;;;;;;0.93;0.43;;;;;;;9.86;77.12;99136.25;4978483;28;24101;-50
2023/12/25 06:04:48;;;;;;;3.40;1.65;;;;;;;9.86;77.62;99140.59;4973976;28;20077;-44
2023/12/25 06:07:15;;;;;;;1.23;0.60;;;;;;;9.85;77.84;99139.72;4969460;28;20051;-44
2023/12/25 06:09:44;;;;;;;0.90;0.40;;;;;;;9.85;77.91;99144.88;4966726;28;20078;-44
2023/12/25 06:12:11;;;;;;;1.48;0.50;;;;;;;9.85;77.04;99147.47;4983269;28;20046;-48
2023/12/25 06:14:37;;;;;;;0.40;0.38;;;;;;;9.82;77.38;99154.41;4981534;28;20042;-54
2023/12/25 06:17:04;;;;;;;0.60;0.60;;;;;;;9.84;78.05;99155.25;4975118;28;21830;-45
2023/12/25 06:19:33;;;;;;;0.77;0.77;;;;;;;9.83;77.01;99148.38;4978341;28;20508;-47
2023/12/25 06:22:02;;;;;;;1.05;0.95;;;;;;;9.82;77.51;99150.09;4974898;28;20053;-44
2023/12/25 06:24:29;;;;;;;0.70;0.20;;;;;;;9.81;77.34;99152.72;4978167;28;20068;-45
2023/12/25 06:26:55;;;;;;;0.90;0.45;;;;;;;9.81;77.87;99152.72;4975544;28;20047;-46
2023/12/25 06:29:22;;;;;;;5.28;0.43;;;;;;;9.79;77.11;99144.13;4979592;28;20046;-46
2023/12/25 06:31:49;;;;;;;0.85;0.43;;;;;;;9.77;77.29;99144.97;4981687;28;20129;-50
2023/12/25 06:34:17;;;;;;;1.27;0.63;;;;;;;9.81;77.17;99142.38;4984158;28;20404;-50
2023/12/25 06:36:44;;;;;;;1.92;0.45;;;;;;;9.79;77.82;99144.13;4985752;28;20057;-43
2023/12/25 06:39:10;;;;;;;1.08;0.85;;;;;;;9.83;76.99;99145.78;4977436;28;20065;-41
2023/12/25 06:41:37;;;;;;;0.80;0.75;;;;;;;9.84;77.68;99144.91;4974826;28;20059;-46
2023/12/25 06:44:05;;;;;;;0.90;0.47;;;;;;;9.83;77.35;99163.91;4979297;28;20050;-53
2023/12/25 06:46:32;;;;;;;0.32;0.30;;;;;;;9.85;77.40;99162.13;4985640;28;20046;-46
2023/12/25 06:48:59;;;;;;;1.88;0.32;;;;;;;9.83;76.82;99166.47;4978412;28;20050;-50
2023/12/25 06:51:26;;;;;;;1.83;0.88;;;;;;;9.84;77.33;99174.22;4981650;28;20042;-45
2023/12/25 06:53:54;;;;;;;2.17;0.55;;;;;;;9.82;76.98;99167.34;4972567;28;20127;-48
2023/12/25 06:56:22;;;;;;;1.45;0.28;;;;;;;9.80;77.42;99161.34;4977247;28;20054;-44
2023/12/25 06:58:49;;;;;;;1.75;0.30;;;;;;;9.78;77.61;99158.78;4991178;28;20050;-50
2023/12/25 07:01:24;;;;;;;0.57;0.30;;;;;;;9.77;77.32;99163.09;4975524;28;20053;-52
2023/12/25 07:03:51;;;;;;;3.13;0.40;;;;;;;9.81;76.75;99158.75;4979080;28;20516;-47
2023/12/25 07:06:17;;;;;;;1.70;0.30;;;;;;;9.77;76.46;99150.16;4978662;28;20129;-48
2023/12/25 07:08:45;;;;;;;0.17;0.10;;;;;;;9.75;77.32;99153.66;4978078;28;20133;-45
2023/12/25 07:11:13;;;;;;;1.55;0.47;;;;;;;9.79;77.11;99154.47;4977825;28;20053;-44
2023/12/25 07:13:40;;;;;;;2.35;0.60;;;;;;;9.79;77.29;99157.06;4976240;28;20046;-46
2023/12/25 07:16:07;;;;;;;6.32;2.58;;;;;;;9.79;76.90;99163.06;4974778;28;20057;-49
2023/12/25 07:18:34;;;;;;;4.60;1.55;;;;;;;9.79;77.12;99154.47;4981607;28;20054;-49
2023/12/25 07:21:00;;;;;;;36.13;16.70;;;;;;;9.79;76.81;99159.66;4975953;28;20125;-47
2023/12/25 07:23:27;;;;;;;2.72;1.27;;;;;;;9.79;76.35;99160.47;4979558;28;20054;-44
2023/12/25 07:25:55;;;;;;;9.95;6.75;;;;;;;9.81;76.76;99163.06;4981304;28;20055;-48
2023/12/25 07:28:22;;;;;;;4.60;2.03;;;;;;;9.74;75.96;99157.97;4983298;28;20562;-47
2023/12/25 07:30:49;;;;;;;5.15;2.15;;;;;;;9.73;76.89;99155.41;4981153;28;20054;-48
2023/12/25 07:33:17;;;;;;;4.05;2.63;;;;;;;9.75;76.78;99158.81;4983534;28;20047;-47
2023/12/25 07:35:43;;;;;;;2.40;0.68;;;;;;;9.72;76.62;99157.13;4985774;28;20463;-48
2023/12/25 07:38:10;;;;;;;1.52;0.98;;;;;;;9.70;76.81;99156.31;4983322;28;20058;-46
2023/12/25 07:40:37;;;;;;;1.27;0.60;;;;;;;9.71;76.63;99157.16;4981769;28;20055;-46
2023/12/25 07:43:07;;;;;;;3.45;1.70;;;;;;;9.73;76.44;99169.19;4977559;28;20050;-47
2023/12/25 07:45:33;;;;;;;6.07;1.90;;;;;;;9.76;76.64;99166.56;4978245;28;20051;-51
2023/12/25 07:48:00;;;;;;;2.25;1.05;;;;;;;9.71;76.11;99168.38;4973181;28;20043;-47
2023/12/25 07:50:27;;;;;;;2.83;2.13;;;;;;;9.79;76.97;99175.16;4969810;28;20607;-41
2023/12/25 07:52:54;;;;;;;3.42;1.65;;;;;;;9.81;76.53;99166.50;4975154;28;20050;-50
2023/12/25 07:55:20;;;;;;;1.00;0.43;;;;;;;9.86;76.69;99166.44;4973171;28;20061;-47
2023/12/25 07:57:47;;;;;;;3.30;1.60;;;;;;;9.87;76.50;99163.81;4977133;28;20066;-44
2023/12/25 08:00:16;;;;;;;3.35;1.75;;;;;;;9.89;76.62;99179.31;4977950;28;20042;-44
2023/12/25 08:02:42;;;;;;;13.10;6.40;;;;;;;9.90;76.46;99179.28;4976249;28;20050;-49
2023/12/25 08:05:09;;;;;;;13.80;6.90;;;;;;;9.91;76.13;99175.00;4983938;28;20463;-46
2023/12/25 08:07:36;;;;;;;5.88;2.53;;;;;;;9.93;76.82;99183.56;4984266;28;20050;-45
2023/12/25 08:10:03;;;;;;;5.63;3.65;;;;;;;9.94;76.13;99172.38;4989534;28;20432;-50
2023/12/25 08:12:30;;;;;;;4.25;0.75;;;;;;;9.95;76.67;99171.47;4981041;28;20043;-45
2023/12/25 08:14:56;;;;;;;1.95;0.88;;;;;;;9.95;75.81;99171.47;4975560;28;20054;-49
2023/12/25 08:17:23;;;;;;;2.72;1.02;;;;;;;9.97;75.93;99179.22;4988156;28;20776;-46
2023/12/25 08:19:50;;;;;;;3.15;0.90;;;;;;;9.97;76.45;99179.22;4975121;28;20053;-44
2023/12/25 08:22:16;;;;;;;4.28;1.83;;;;;;;9.98;76.84;99197.31;4980102;28;20081;-47
2023/12/25 08:24:43;;;;;;;6.85;3.95;;;;;;;9.99;75.96;99204.19;4985114;28;20642;-46
2023/12/25 08:27:10;;;;;;;6.82;3.75;;;;;;;10.01;75.87;99202.44;4983583;28;20055;-41
2023/12/25 08:29:37;;;;;;;1.08;0.80;;;;;;;10.02;76.13;99206.75;4981817;28;20113;-47
2023/12/25 08:32:04;;;;;;;5.25;3.65;;;;;;;10.03;75.95;99185.16;4983762;28;20047;-47
2023/12/25 08:34:30;;;;;;;2.53;1.00;;;;;;;10.07;76.23;99198.06;4984080;28;20046;-46
2023/12/25 08:36:57;;;;;;;6.65;3.90;;;;;;;10.07;76.87;99196.34;4993143;28;20054;-48
2023/12/25 08:39:24;;;;;;;5.68;2.65;;;;;;;10.08;76.30;99202.34;4987641;28;20042;-49
2023/12/25 08:41:50;;;;;;;5.97;1.77;;;;;;;10.09;76.37;99204.91;4985634;28;20050;-50
2023/12/25 08:44:17;;;;;;;7.22;3.30;;;;;;;10.10;75.88;99210.94;4987965;28;20570;-44
2023/12/25 08:46:46;;;;;;;6.15;2.35;;;;;;;10.12;76.52;99220.41;4993645;28;20046;-50
2023/12/25 08:49:13;;;;;;;4.43;0.63;;;;;;;10.12;75.81;99215.22;4990633;28;20136;-45
2023/12/25 08:51:40;;;;;;;1.02;0.32;;;;;;;10.13;76.64;99216.06;4984332;28;20042;-44
2023/12/25 08:54:07;;;;;;;1.83;0.40;;;;;;;10.12;75.99;99219.53;4991002;28;20070;-44
2023/12/25 08:56:35;;;;;;;4.35;1.20;;;;;;;10.12;76.49;99235.06;4983616;28;20046;-47
2023/12/25 08:59:04;;;;;;;2.88;1.10;;;;;;;10.11;76.70;99239.41;4994304;28;20136;-48
2023/12/25 09:01:32;;;;;;;7.50;1.92;;;;;;;10.13;76.74;99226.41;4981172;28;20046;-44
2023/12/25 09:03:58;;;;;;;8.90;3.05;;;;;;;10.13;76.77;99231.59;4981142;28;20061;-51
2023/12/25 09:06:25;;;;;;;2.78;0.57;;;;;;;10.11;76.98;99228.19;4984772;28;20053;-49
2023/12/25 09:08:52;;;;;;;1.50;0.82;;;;;;;10.11;76.72;99220.41;4989156;28;20050;-53
2023/12/25 09:11:19;;;;;;;1.95;0.60;;;;;;;10.08;76.14;99228.22;4985783;28;20149;-49
2023/12/25 09:13:46;;;;;;;2.22;0.50;;;;;;;10.10;76.45;99232.47;4991383;28;20046;-43
2023/12/25 09:16:12;;;;;;;10.00;2.92;;;;;;;10.12;76.21;99235.06;4991198;28;20073;-43
2023/12/25 09:18:39;;;;;;;11.05;4.15;;;;;;;10.12;76.68;99227.28;4985192;28;20055;-48
2023/12/25 09:21:06;;;;;;;3.38;1.75;;;;;;;10.15;76.28;99235.03;4984113;28;20050;-47
2023/12/25 09:23:34;;;;;;;5.78;2.10;;;;;;;10.22;76.03;99247.00;4985860;28;20051;-53
2023/12/25 09:26:04;;;;;;;4.90;1.08;;;;;;;10.27;76.28;99237.44;4979337;28;20057;-47
2023/12/25 09:28:32;;;;;;;2.78;0.80;;;;;;;10.37;76.64;99232.13;4980665;28;20053;-45
2023/12/25 09:30:58;;;;;;;4.40;2.15;;;;;;;10.48;75.90;99245.81;4984993;28;20428;-46
2023/12/25 09:33:25;;;;;;;8.82;3.50;;;;;;;10.57;76.70;99238.75;4987605;28;22969;-45
2023/12/25 09:35:52;;;;;;;2.97;1.00;;;;;;;10.60;76.75;99241.31;4985403;28;20057;-47
2023/12/25 09:38:19;;;;;;;4.07;1.13;;;;;;;10.61;75.75;99238.66;4984495;28;20081;-51
2023/12/25 09:40:46;;;;;;;1.65;0.63;;;;;;;10.64;77.12;99253.31;4988152;28;20123;-44
2023/12/25 09:43:13;;;;;;;4.65;1.10;;;;;;;10.65;76.84;99247.25;4985089;28;20042;-48
2023/12/25 09:45:39;;;;;;;2.60;1.40;;;;;;;10.67;76.37;99238.59;4991868;28;20496;-49
2023/12/25 09:48:07;;;;;;;2.97;1.05;;;;;;;10.68;76.19;99239.44;4986925;28;20128;-45
2023/12/25 09:50:37;;;;;;;2.60;0.80;;;;;;;10.71;76.19;99243.72;4991838;28;20047;-46
2023/12/25 09:53:04;;;;;;;2.45;0.70;;;;;;;10.64;77.46;99233.44;4985255;28;20049;-41
2023/12/25 09:55:30;;;;;;;8.73;1.65;;;;;;;10.69;76.59;99243.75;4982749;28;20385;-47
2023/12/25 09:58:00;;;;;;;0.82;0.50;;;;;;;10.73;76.35;99258.34;4979602;28;20620;-43
2023/12/25 10:00:27;;;;;;;2.92;1.20;;;;;;;10.73;77.15;99254.91;4993064;28;20050;-44
2023/12/25 10:02:55;;;;;;;3.70;1.17;;;;;;;10.77;76.65;99230.66;4979440;28;20069;-45
2023/12/25 10:05:22;;;;;;;2.35;0.70;;;;;;;10.78;77.43;99222.84;4983014;28;20467;-48
2023/12/25 10:07:49;;;;;;;4.40;0.88;;;;;;;10.79;76.44;99216.81;4984567;28;20363;-51
2023/12/25 10:10:16;;;;;;;3.65;1.15;;;;;;;10.84;76.39;99236.59;4982950;28;20441;-44
2023/12/25 10:12:44;;;;;;;1.98;0.98;;;;;;;10.83;77.12;99216.75;4981705;28;20476;-48
2023/12/25 10:15:13;;;;;;;1.80;0.82;;;;;;;10.84;77.15;99214.13;4979704;28;20051;-48
2023/12/25 10:17:40;;;;;;;1.13;0.52;;;;;;;10.84;76.51;99214.13;4977556;28;20073;-49
2023/12/25 10:20:08;;;;;;;3.92;0.52;;;;;;;10.86;76.46;99195.97;4972579;28;20053;-42
2023/12/25 10:22:38;;;;;;;3.22;0.95;;;;;;;10.81;76.81;99203.84;4972599;28;20416;-47
2023/12/25 10:27:43;;;;;;;6.30;1.10;;;;;;;10.84;76.39;99179.63;5072761;27;20383;-45
2023/12/25 10:30:19;;;;;;;4.05;1.88;;;;;;;10.83;76.73;99186.53;5027314;28;20132;-46
2023/12/25 10:32:47;;;;;;;3.75;0.90;;;;;;;10.85;76.12;99194.25;5013195;28;20503;-48
2023/12/25 10:35:18;;;;;;;2.38;0.40;;;;;;;10.77;77.15;99195.25;5019145;28;20465;-50
2023/12/25 10:37:46;;;;;;;2.03;0.77;;;;;;;10.85;76.82;99189.94;5027242;28;20061;-49
2023/12/25 10:42:58;;;;;;;2.25;1.92;;;;;;;10.89;76.16;99212.34;5096386;27;20385;-50
2023/12/25 10:45:27;;;;;;;4.93;2.80;;;;;;;10.90;76.56;99219.22;5054468;28;20847;-45
2023/12/25 10:47:56;;;;;;;2.63;1.70;;;;;;;10.91;76.65;99231.28;5049727;28;20136;-50
2023/12/25 10:50:26;;;;;;;1.63;0.88;;;;;;;10.96;76.09;99227.75;5053400;28;21140;-48
2023/12/25 10:53:01;;;;;;;3.13;2.83;;;;;;;10.99;77.26;99213.03;5056162;28;20076;-49
2023/12/25 10:55:36;;;;;;;4.57;1.67;;;;;;;11.03;76.82;99214.66;5043561;28;20049;-51
2023/12/25 10:58:08;;;;;;;5.00;3.25;;;;;;;11.07;76.63;99225.00;5035958;28;20505;-44
2023/12/25 11:00:39;;;;;;;4.70;2.15;;;;;;;11.09;76.71;99234.44;5019153;28;20049;-47
2023/12/25 11:03:12;;;;;;;2.30;1.88;;;;;;;11.10;77.36;99235.28;5026660;28;20057;-42
2023/12/25 11:05:40;;;;;;;2.40;1.83;;;;;;;11.12;76.25;99215.38;5032317;28;20057;-47
2023/12/25 11:08:08;;;;;;;7.47;2.58;;;;;;;11.14;76.38;99222.25;5030309;28;20128;-47
2023/12/25 11:10:35;;;;;;;8.05;2.67;;;;;;;11.11;77.41;99216.28;5029376;28;20107;-48
2023/12/25 11:13:03;;;;;;;2.47;2.25;;;;;;;11.13;76.48;99225.72;5030505;28;20045;-47
2023/12/25 11:15:30;;;;;;;5.78;2.60;;;;;;;11.11;77.51;99226.63;5030681;28;20056;-53
2023/12/25 11:17:58;;;;;;;3.83;1.73;;;;;;;11.09;77.54;99228.38;5034294;28;20053;-47
2023/12/25 11:20:25;;;;;;;5.68;2.88;;;;;;;11.12;77.84;99212.78;5033190;28;20138;-50
2023/12/25 11:22:56;;;;;;;6.75;2.92;;;;;;;11.13;76.77;99204.13;5031639;28;20146;-47
2023/12/25 11:25:27;;;;;;;4.95;2.55;;;;;;;11.15;77.01;99204.97;5032165;28;20045;-47
2023/12/25 11:27:55;;;;;;;6.68;0.65;;;;;;;11.18;77.66;99215.28;5030618;28;20473;-44
2023/12/25 11:30:24;;;;;;;2.42;2.03;;;;;;;11.17;76.50;99217.00;5037367;28;20051;-44
2023/12/25 11:32:52;;;;;;;3.28;2.90;;;;;;;11.19;77.59;99215.22;5051920;28;20414;-43
2023/12/25 11:35:28;;;;;;;12.90;5.60;;;;;;;11.23;77.38;99221.22;5050393;28;20045;-45
2023/12/25 11:41:00;;;;;;;5.63;1.00;;;;;;;11.31;76.73;99228.84;5056076;27;20390;-46
2023/12/25 11:43:29;;;;;;;7.55;0.88;;;;;;;11.35;76.81;99219.28;5025584;28;20553;-46